sensor_id;sensor_type;location;lat;lon;timestamp;P1;durP1;ratioP1;P2;durP2;ratioP2
50932;SDS011;36921;49.006;9.292;2023-02-28T00:00:42;3.90;;;2.42;;
50932;SDS011;36921;49.006;9.292;2023-02-28T00:03:08;4.97;;;2.42;;
50932;SDS011;36921;49.006;9.292;2023-02-28T00:05:33;5.13;;;2.67;;
50932;SDS011;36921;49.006;9.292;2023-02-28T00:07:58;4.00;;;2.20;;
50932;SDS011;36921;49.006;9.292;2023-02-28T00:10:25;4.68;;;2.60;;
50932;SDS011;36921;49.006;9.292;2023-02-28T00:12:53;6.43;;;2.70;;
50932;SDS011;36921;49.006;9.292;2023-02-28T00:17:48;4.60;;;2.53;;
50932;SDS011;36921;49.006;9.292;2023-02-28T00:20:13;5.20;;;2.47;;
50932;SDS011;36921;49.006;9.292;2023-02-28T00:22:39;3.97;;;2.47;;
50932;SDS011;36921;49.006;9.292;2023-02-28T00:25:17;3.47;;;2.28;;
50932;SDS011;36921;49.006;9.292;2023-02-28T00:27:44;3.20;;;2.20;;
50932;SDS011;36921;49.006;9.292;2023-02-28T00:30:12;6.35;;;2.53;;
50932;SDS011;36921;49.006;9.292;2023-02-28T00:32:39;6.30;;;2.50;;
50932;SDS011;36921;49.006;9.292;2023-02-28T00:35:05;7.00;;;2.65;;
50932;SDS011;36921;49.006;9.292;2023-02-28T00:37:31;5.75;;;2.45;;
50932;SDS011;36921;49.006;9.292;2023-02-28T00:39:57;8.93;;;2.60;;
50932;SDS011;36921;49.006;9.292;2023-02-28T00:42:22;9.30;;;2.42;;
50932;SDS011;36921;49.006;9.292;2023-02-28T00:44:48;9.35;;;2.70;;
50932;SDS011;36921;49.006;9.292;2023-02-28T00:47:14;5.13;;;2.78;;
50932;SDS011;36921;49.006;9.292;2023-02-28T00:49:39;4.18;;;2.50;;
50932;SDS011;36921;49.006;9.292;2023-02-28T00:52:05;4.13;;;2.42;;
50932;SDS011;36921;49.006;9.292;2023-02-28T00:54:30;4.65;;;2.40;;
50932;SDS011;36921;49.006;9.292;2023-02-28T00:56:55;6.72;;;2.47;;
50932;SDS011;36921;49.006;9.292;2023-02-28T00:59:20;4.50;;;2.40;;
50932;SDS011;36921;49.006;9.292;2023-02-28T01:01:46;5.05;;;2.47;;
50932;SDS011;36921;49.006;9.292;2023-02-28T01:04:12;5.88;;;2.55;;
50932;SDS011;36921;49.006;9.292;2023-02-28T01:06:38;5.15;;;2.30;;
50932;SDS011;36921;49.006;9.292;2023-02-28T01:09:05;6.88;;;2.58;;
50932;SDS011;36921;49.006;9.292;2023-02-28T01:11:31;6.82;;;2.85;;
50932;SDS011;36921;49.006;9.292;2023-02-28T01:13:57;4.90;;;1.92;;
50932;SDS011;36921;49.006;9.292;2023-02-28T01:16:22;5.93;;;3.20;;
50932;SDS011;36921;49.006;9.292;2023-02-28T01:18:48;4.88;;;2.72;;
50932;SDS011;36921;49.006;9.292;2023-02-28T01:21:15;9.50;;;3.03;;
50932;SDS011;36921;49.006;9.292;2023-02-28T01:23:42;3.83;;;2.22;;
50932;SDS011;36921;49.006;9.292;2023-02-28T01:26:08;4.97;;;2.67;;
50932;SDS011;36921;49.006;9.292;2023-02-28T01:28:36;5.85;;;2.35;;
50932;SDS011;36921;49.006;9.292;2023-02-28T01:31:02;3.55;;;2.40;;
50932;SDS011;36921;49.006;9.292;2023-02-28T01:33:27;4.88;;;2.55;;
50932;SDS011;36921;49.006;9.292;2023-02-28T01:36:00;4.55;;;2.70;;
50932;SDS011;36921;49.006;9.292;2023-02-28T01:38:30;3.05;;;2.10;;
50932;SDS011;36921;49.006;9.292;2023-02-28T01:40:55;5.72;;;2.78;;
50932;SDS011;36921;49.006;9.292;2023-02-28T01:45:52;4.90;;;2.55;;
50932;SDS011;36921;49.006;9.292;2023-02-28T01:48:18;6.72;;;3.05;;
50932;SDS011;36921;49.006;9.292;2023-02-28T01:50:45;5.45;;;2.63;;
50932;SDS011;36921;49.006;9.292;2023-02-28T01:53:14;6.60;;;2.40;;
50932;SDS011;36921;49.006;9.292;2023-02-28T01:55:42;3.70;;;2.42;;
50932;SDS011;36921;49.006;9.292;2023-02-28T01:58:11;5.93;;;2.90;;
50932;SDS011;36921;49.006;9.292;2023-02-28T02:00:37;5.30;;;2.88;;
50932;SDS011;36921;49.006;9.292;2023-02-28T02:03:08;6.15;;;2.88;;
50932;SDS011;36921;49.006;9.292;2023-02-28T02:05:36;3.90;;;2.80;;
50932;SDS011;36921;49.006;9.292;2023-02-28T02:08:05;6.82;;;3.03;;
50932;SDS011;36921;49.006;9.292;2023-02-28T02:10:35;5.55;;;2.67;;
50932;SDS011;36921;49.006;9.292;2023-02-28T02:27:26;5.72;;;3.35;;
50932;SDS011;36921;49.006;9.292;2023-02-28T02:30:18;6.47;;;3.20;;
50932;SDS011;36921;49.006;9.292;2023-02-28T02:44:12;6.78;;;2.90;;
50932;SDS011;36921;49.006;9.292;2023-02-28T02:46:44;7.07;;;2.47;;
50932;SDS011;36921;49.006;9.292;2023-02-28T02:49:12;6.28;;;3.30;;
50932;SDS011;36921;49.006;9.292;2023-02-28T02:51:44;5.05;;;3.10;;
50932;SDS011;36921;49.006;9.292;2023-02-28T02:54:34;9.18;;;3.08;;
50932;SDS011;36921;49.006;9.292;2023-02-28T02:57:01;9.90;;;3.45;;
50932;SDS011;36921;49.006;9.292;2023-02-28T02:59:30;7.47;;;3.03;;
50932;SDS011;36921;49.006;9.292;2023-02-28T03:01:59;6.18;;;3.40;;
50932;SDS011;36921;49.006;9.292;2023-02-28T03:04:30;6.93;;;3.38;;
50932;SDS011;36921;49.006;9.292;2023-02-28T03:07:00;6.03;;;3.15;;
50932;SDS011;36921;49.006;9.292;2023-02-28T03:09:25;5.25;;;2.70;;
50932;SDS011;36921;49.006;9.292;2023-02-28T03:11:52;6.43;;;2.90;;
50932;SDS011;36921;49.006;9.292;2023-02-28T03:23:19;6.18;;;2.50;;
50932;SDS011;36921;49.006;9.292;2023-02-28T03:28:22;5.45;;;3.22;;
50932;SDS011;36921;49.006;9.292;2023-02-28T03:31:14;6.15;;;2.75;;
50932;SDS011;36921;49.006;9.292;2023-02-28T03:33:46;6.00;;;3.15;;
50932;SDS011;36921;49.006;9.292;2023-02-28T03:36:20;5.32;;;2.80;;
50932;SDS011;36921;49.006;9.292;2023-02-28T03:38:55;7.15;;;2.92;;
50932;SDS011;36921;49.006;9.292;2023-02-28T03:41:38;6.53;;;3.10;;
50932;SDS011;36921;49.006;9.292;2023-02-28T03:44:13;6.68;;;3.42;;
50932;SDS011;36921;49.006;9.292;2023-02-28T03:46:44;6.05;;;3.03;;
50932;SDS011;36921;49.006;9.292;2023-02-28T03:49:17;6.93;;;3.20;;
50932;SDS011;36921;49.006;9.292;2023-02-28T03:51:49;6.47;;;3.20;;
50932;SDS011;36921;49.006;9.292;2023-02-28T03:54:17;8.82;;;3.42;;
50932;SDS011;36921;49.006;9.292;2023-02-28T03:56:48;10.93;;;3.78;;
50932;SDS011;36921;49.006;9.292;2023-02-28T03:59:24;5.53;;;3.45;;
50932;SDS011;36921;49.006;9.292;2023-02-28T04:01:54;6.22;;;3.20;;
50932;SDS011;36921;49.006;9.292;2023-02-28T04:04:20;5.80;;;3.58;;
50932;SDS011;36921;49.006;9.292;2023-02-28T04:06:47;6.80;;;3.35;;
50932;SDS011;36921;49.006;9.292;2023-02-28T04:11:59;6.50;;;3.83;;
50932;SDS011;36921;49.006;9.292;2023-02-28T04:14:25;7.07;;;3.22;;
50932;SDS011;36921;49.006;9.292;2023-02-28T04:16:51;6.43;;;3.33;;
50932;SDS011;36921;49.006;9.292;2023-02-28T04:19:17;7.35;;;3.53;;
50932;SDS011;36921;49.006;9.292;2023-02-28T04:21:47;8.82;;;3.55;;
50932;SDS011;36921;49.006;9.292;2023-02-28T04:24:15;7.05;;;3.45;;
50932;SDS011;36921;49.006;9.292;2023-02-28T04:26:44;8.60;;;3.40;;
50932;SDS011;36921;49.006;9.292;2023-02-28T04:29:12;3.83;;;2.63;;
50932;SDS011;36921;49.006;9.292;2023-02-28T04:31:39;9.57;;;4.05;;
50932;SDS011;36921;49.006;9.292;2023-02-28T04:34:04;8.48;;;3.22;;
50932;SDS011;36921;49.006;9.292;2023-02-28T04:36:30;5.30;;;2.95;;
50932;SDS011;36921;49.006;9.292;2023-02-28T04:38:56;3.75;;;2.83;;
50932;SDS011;36921;49.006;9.292;2023-02-28T04:41:21;7.72;;;4.03;;
50932;SDS011;36921;49.006;9.292;2023-02-28T04:43:47;5.82;;;3.20;;
50932;SDS011;36921;49.006;9.292;2023-02-28T04:46:13;6.95;;;3.85;;
50932;SDS011;36921;49.006;9.292;2023-02-28T04:48:39;7.15;;;3.70;;
50932;SDS011;36921;49.006;9.292;2023-02-28T04:51:06;8.13;;;3.55;;
50932;SDS011;36921;49.006;9.292;2023-02-28T04:53:33;10.25;;;3.53;;
50932;SDS011;36921;49.006;9.292;2023-02-28T04:55:59;9.25;;;3.40;;
50932;SDS011;36921;49.006;9.292;2023-02-28T04:58:25;7.82;;;3.65;;
50932;SDS011;36921;49.006;9.292;2023-02-28T05:00:51;6.25;;;3.42;;
50932;SDS011;36921;49.006;9.292;2023-02-28T05:03:17;7.95;;;3.30;;
50932;SDS011;36921;49.006;9.292;2023-02-28T05:05:42;5.60;;;3.08;;
50932;SDS011;36921;49.006;9.292;2023-02-28T05:08:07;5.35;;;3.20;;
50932;SDS011;36921;49.006;9.292;2023-02-28T05:10:34;6.70;;;3.60;;
50932;SDS011;36921;49.006;9.292;2023-02-28T05:13:00;6.15;;;3.38;;
50932;SDS011;36921;49.006;9.292;2023-02-28T05:15:25;8.27;;;3.63;;
50932;SDS011;36921;49.006;9.292;2023-02-28T05:17:50;9.50;;;3.30;;
50932;SDS011;36921;49.006;9.292;2023-02-28T05:20:16;9.80;;;3.88;;
50932;SDS011;36921;49.006;9.292;2023-02-28T05:22:42;8.43;;;3.75;;
50932;SDS011;36921;49.006;9.292;2023-02-28T05:25:10;9.45;;;4.07;;
50932;SDS011;36921;49.006;9.292;2023-02-28T05:27:40;8.45;;;3.78;;
50932;SDS011;36921;49.006;9.292;2023-02-28T05:30:07;6.43;;;3.97;;
50932;SDS011;36921;49.006;9.292;2023-02-28T05:32:35;9.02;;;3.92;;
50932;SDS011;36921;49.006;9.292;2023-02-28T05:35:01;5.57;;;3.65;;
50932;SDS011;36921;49.006;9.292;2023-02-28T05:37:27;12.75;;;4.32;;
50932;SDS011;36921;49.006;9.292;2023-02-28T05:39:52;7.25;;;3.83;;
50932;SDS011;36921;49.006;9.292;2023-02-28T05:42:18;8.00;;;3.80;;
50932;SDS011;36921;49.006;9.292;2023-02-28T05:44:43;6.88;;;3.45;;
50932;SDS011;36921;49.006;9.292;2023-02-28T05:47:08;6.70;;;3.80;;
50932;SDS011;36921;49.006;9.292;2023-02-28T05:49:34;11.55;;;3.90;;
50932;SDS011;36921;49.006;9.292;2023-02-28T05:51:59;7.97;;;3.78;;
50932;SDS011;36921;49.006;9.292;2023-02-28T05:54:24;10.70;;;4.40;;
50932;SDS011;36921;49.006;9.292;2023-02-28T05:56:50;11.25;;;4.03;;
50932;SDS011;36921;49.006;9.292;2023-02-28T05:59:15;10.35;;;3.97;;
50932;SDS011;36921;49.006;9.292;2023-02-28T06:01:41;9.23;;;3.97;;
50932;SDS011;36921;49.006;9.292;2023-02-28T06:04:12;16.40;;;4.75;;
50932;SDS011;36921;49.006;9.292;2023-02-28T06:06:42;8.07;;;4.38;;
50932;SDS011;36921;49.006;9.292;2023-02-28T06:11:37;8.38;;;4.10;;
50932;SDS011;36921;49.006;9.292;2023-02-28T06:14:03;7.43;;;3.92;;
50932;SDS011;36921;49.006;9.292;2023-02-28T06:16:30;8.20;;;4.25;;
50932;SDS011;36921;49.006;9.292;2023-02-28T06:18:57;7.63;;;3.80;;
50932;SDS011;36921;49.006;9.292;2023-02-28T06:21:23;9.27;;;4.05;;
50932;SDS011;36921;49.006;9.292;2023-02-28T06:23:49;9.38;;;4.22;;
50932;SDS011;36921;49.006;9.292;2023-02-28T06:26:15;9.77;;;3.65;;
50932;SDS011;36921;49.006;9.292;2023-02-28T06:28:40;8.57;;;4.05;;
50932;SDS011;36921;49.006;9.292;2023-02-28T06:31:09;8.20;;;3.88;;
50932;SDS011;36921;49.006;9.292;2023-02-28T06:33:37;9.73;;;4.50;;
50932;SDS011;36921;49.006;9.292;2023-02-28T06:36:04;14.57;;;4.63;;
50932;SDS011;36921;49.006;9.292;2023-02-28T06:38:30;10.50;;;4.40;;
50932;SDS011;36921;49.006;9.292;2023-02-28T06:40:56;10.60;;;4.72;;
50932;SDS011;36921;49.006;9.292;2023-02-28T06:43:23;14.77;;;4.18;;
50932;SDS011;36921;49.006;9.292;2023-02-28T06:45:49;8.23;;;4.15;;
50932;SDS011;36921;49.006;9.292;2023-02-28T06:48:15;7.95;;;4.03;;
50932;SDS011;36921;49.006;9.292;2023-02-28T06:50:40;8.93;;;4.40;;
50932;SDS011;36921;49.006;9.292;2023-02-28T06:53:05;7.43;;;3.70;;
50932;SDS011;36921;49.006;9.292;2023-02-28T06:55:31;6.82;;;3.90;;
50932;SDS011;36921;49.006;9.292;2023-02-28T06:57:57;8.13;;;4.57;;
50932;SDS011;36921;49.006;9.292;2023-02-28T07:00:23;8.80;;;4.20;;
50932;SDS011;36921;49.006;9.292;2023-02-28T07:02:49;8.65;;;3.95;;
50932;SDS011;36921;49.006;9.292;2023-02-28T07:05:15;10.30;;;4.13;;
50932;SDS011;36921;49.006;9.292;2023-02-28T07:07:40;8.77;;;4.35;;
50932;SDS011;36921;49.006;9.292;2023-02-28T07:10:09;9.00;;;4.68;;
50932;SDS011;36921;49.006;9.292;2023-02-28T07:12:37;9.32;;;4.57;;
50932;SDS011;36921;49.006;9.292;2023-02-28T07:15:03;7.32;;;3.90;;
50932;SDS011;36921;49.006;9.292;2023-02-28T07:17:29;7.97;;;4.03;;
50932;SDS011;36921;49.006;9.292;2023-02-28T07:19:54;8.15;;;4.55;;
50932;SDS011;36921;49.006;9.292;2023-02-28T07:22:20;13.48;;;5.35;;
50932;SDS011;36921;49.006;9.292;2023-02-28T07:24:45;8.20;;;4.70;;
50932;SDS011;36921;49.006;9.292;2023-02-28T07:27:10;11.70;;;5.18;;
50932;SDS011;36921;49.006;9.292;2023-02-28T07:29:36;8.95;;;4.25;;
50932;SDS011;36921;49.006;9.292;2023-02-28T07:32:02;10.07;;;4.90;;
50932;SDS011;36921;49.006;9.292;2023-02-28T07:34:27;8.77;;;4.00;;
50932;SDS011;36921;49.006;9.292;2023-02-28T07:36:53;11.02;;;4.88;;
50932;SDS011;36921;49.006;9.292;2023-02-28T07:39:19;8.27;;;5.13;;
50932;SDS011;36921;49.006;9.292;2023-02-28T07:41:45;12.90;;;5.97;;
50932;SDS011;36921;49.006;9.292;2023-02-28T07:44:10;13.43;;;5.07;;
50932;SDS011;36921;49.006;9.292;2023-02-28T07:46:36;12.05;;;4.90;;
50932;SDS011;36921;49.006;9.292;2023-02-28T07:49:01;7.45;;;4.68;;
50932;SDS011;36921;49.006;9.292;2023-02-28T07:51:28;9.07;;;5.10;;
50932;SDS011;36921;49.006;9.292;2023-02-28T07:53:54;9.38;;;4.60;;
50932;SDS011;36921;49.006;9.292;2023-02-28T07:56:20;12.55;;;4.47;;
50932;SDS011;36921;49.006;9.292;2023-02-28T07:58:45;9.35;;;4.50;;
50932;SDS011;36921;49.006;9.292;2023-02-28T08:01:11;7.35;;;4.35;;
50932;SDS011;36921;49.006;9.292;2023-02-28T08:03:37;9.00;;;4.75;;
50932;SDS011;36921;49.006;9.292;2023-02-28T08:06:03;19.23;;;5.10;;
50932;SDS011;36921;49.006;9.292;2023-02-28T08:08:30;9.63;;;4.80;;
50932;SDS011;36921;49.006;9.292;2023-02-28T08:10:58;8.98;;;4.88;;
50932;SDS011;36921;49.006;9.292;2023-02-28T08:13:25;10.13;;;5.35;;
50932;SDS011;36921;49.006;9.292;2023-02-28T08:15:52;9.10;;;5.28;;
50932;SDS011;36921;49.006;9.292;2023-02-28T08:18:18;8.50;;;5.07;;
50932;SDS011;36921;49.006;9.292;2023-02-28T08:20:44;9.75;;;4.93;;
50932;SDS011;36921;49.006;9.292;2023-02-28T08:23:09;7.82;;;4.80;;
50932;SDS011;36921;49.006;9.292;2023-02-28T08:25:34;8.65;;;4.85;;
50932;SDS011;36921;49.006;9.292;2023-02-28T08:28:00;10.05;;;5.50;;
50932;SDS011;36921;49.006;9.292;2023-02-28T08:30:25;9.40;;;5.65;;
50932;SDS011;36921;49.006;9.292;2023-02-28T08:32:57;6.72;;;4.55;;
50932;SDS011;36921;49.006;9.292;2023-02-28T08:35:23;11.70;;;5.00;;
50932;SDS011;36921;49.006;9.292;2023-02-28T08:37:48;12.65;;;5.15;;
50932;SDS011;36921;49.006;9.292;2023-02-28T08:40:14;14.57;;;5.43;;
50932;SDS011;36921;49.006;9.292;2023-02-28T08:42:43;9.50;;;4.85;;
50932;SDS011;36921;49.006;9.292;2023-02-28T08:47:38;9.18;;;5.28;;
50932;SDS011;36921;49.006;9.292;2023-02-28T08:50:04;11.57;;;5.75;;
50932;SDS011;36921;49.006;9.292;2023-02-28T08:52:30;11.23;;;5.15;;
50932;SDS011;36921;49.006;9.292;2023-02-28T08:54:55;24.83;;;6.50;;
50932;SDS011;36921;49.006;9.292;2023-02-28T08:57:21;10.07;;;5.03;;
50932;SDS011;36921;49.006;9.292;2023-02-28T08:59:46;7.90;;;4.93;;
50932;SDS011;36921;49.006;9.292;2023-02-28T09:02:14;7.85;;;4.97;;
50932;SDS011;36921;49.006;9.292;2023-02-28T09:04:40;8.77;;;5.27;;
50932;SDS011;36921;49.006;9.292;2023-02-28T09:07:06;11.38;;;5.32;;
50932;SDS011;36921;49.006;9.292;2023-02-28T09:09:32;7.05;;;4.85;;
50932;SDS011;36921;49.006;9.292;2023-02-28T09:11:58;8.55;;;5.28;;
50932;SDS011;36921;49.006;9.292;2023-02-28T09:14:24;8.88;;;5.30;;
50932;SDS011;36921;49.006;9.292;2023-02-28T09:16:49;8.10;;;4.93;;
50932;SDS011;36921;49.006;9.292;2023-02-28T09:19:15;13.48;;;6.35;;
50932;SDS011;36921;49.006;9.292;2023-02-28T09:21:40;9.85;;;5.88;;
50932;SDS011;36921;49.006;9.292;2023-02-28T09:24:06;9.75;;;6.35;;
50932;SDS011;36921;49.006;9.292;2023-02-28T09:26:32;8.80;;;5.38;;
50932;SDS011;36921;49.006;9.292;2023-02-28T09:28:59;10.90;;;5.78;;
50932;SDS011;36921;49.006;9.292;2023-02-28T09:31:25;10.88;;;6.47;;
50932;SDS011;36921;49.006;9.292;2023-02-28T09:33:53;12.02;;;5.75;;
50932;SDS011;36921;49.006;9.292;2023-02-28T09:36:20;9.88;;;5.68;;
50932;SDS011;36921;49.006;9.292;2023-02-28T09:38:47;9.57;;;5.68;;
50932;SDS011;36921;49.006;9.292;2023-02-28T09:41:19;9.88;;;6.10;;
50932;SDS011;36921;49.006;9.292;2023-02-28T09:43:50;9.25;;;5.38;;
50932;SDS011;36921;49.006;9.292;2023-02-28T09:46:37;11.00;;;5.65;;
50932;SDS011;36921;49.006;9.292;2023-02-28T09:49:19;8.15;;;5.38;;
50932;SDS011;36921;49.006;9.292;2023-02-28T09:51:50;9.68;;;5.95;;
50932;SDS011;36921;49.006;9.292;2023-02-28T09:54:22;20.25;;;6.35;;
50932;SDS011;36921;49.006;9.292;2023-02-28T09:56:50;10.07;;;5.45;;
50932;SDS011;36921;49.006;9.292;2023-02-28T10:02:01;8.73;;;5.53;;
50932;SDS011;36921;49.006;9.292;2023-02-28T10:04:52;10.45;;;5.80;;
50932;SDS011;36921;49.006;9.292;2023-02-28T10:07:28;21.05;;;5.47;;
50932;SDS011;36921;49.006;9.292;2023-02-28T10:10:10;7.80;;;5.38;;
50932;SDS011;36921;49.006;9.292;2023-02-28T10:12:45;9.13;;;5.38;;
50932;SDS011;36921;49.006;9.292;2023-02-28T10:15:15;8.63;;;5.55;;
50932;SDS011;36921;49.006;9.292;2023-02-28T10:17:43;9.05;;;5.65;;
50932;SDS011;36921;49.006;9.292;2023-02-28T10:20:12;8.98;;;5.43;;
50932;SDS011;36921;49.006;9.292;2023-02-28T10:22:50;12.48;;;5.50;;
50932;SDS011;36921;49.006;9.292;2023-02-28T10:25:18;8.65;;;5.50;;
50932;SDS011;36921;49.006;9.292;2023-02-28T10:27:49;9.20;;;5.40;;
50932;SDS011;36921;49.006;9.292;2023-02-28T10:30:18;9.02;;;5.55;;
50932;SDS011;36921;49.006;9.292;2023-02-28T10:32:46;9.07;;;5.72;;
50932;SDS011;36921;49.006;9.292;2023-02-28T10:35:19;9.18;;;5.53;;
50932;SDS011;36921;49.006;9.292;2023-02-28T10:37:47;8.50;;;5.38;;
50932;SDS011;36921;49.006;9.292;2023-02-28T10:42:50;8.30;;;5.60;;
50932;SDS011;36921;49.006;9.292;2023-02-28T10:45:19;11.63;;;5.40;;
50932;SDS011;36921;49.006;9.292;2023-02-28T10:47:55;8.82;;;5.45;;
50932;SDS011;36921;49.006;9.292;2023-02-28T10:50:29;7.20;;;5.57;;
50932;SDS011;36921;49.006;9.292;2023-02-28T10:52:56;6.05;;;4.40;;
50932;SDS011;36921;49.006;9.292;2023-02-28T10:55:35;7.75;;;5.53;;
50932;SDS011;36921;49.006;9.292;2023-02-28T10:58:01;10.38;;;5.63;;
50932;SDS011;36921;49.006;9.292;2023-02-28T11:00:31;8.70;;;5.65;;
50932;SDS011;36921;49.006;9.292;2023-02-28T11:02:59;17.27;;;6.40;;
50932;SDS011;36921;49.006;9.292;2023-02-28T11:05:27;12.52;;;6.10;;
50932;SDS011;36921;49.006;9.292;2023-02-28T11:08:11;9.73;;;5.63;;
50932;SDS011;36921;49.006;9.292;2023-02-28T11:10:43;14.35;;;5.80;;
50932;SDS011;36921;49.006;9.292;2023-02-28T11:13:18;11.63;;;5.50;;
50932;SDS011;36921;49.006;9.292;2023-02-28T11:15:56;9.63;;;5.60;;
50932;SDS011;36921;49.006;9.292;2023-02-28T11:21:07;9.15;;;5.85;;
50932;SDS011;36921;49.006;9.292;2023-02-28T11:23:35;8.52;;;5.68;;
50932;SDS011;36921;49.006;9.292;2023-02-28T11:26:03;10.23;;;5.70;;
50932;SDS011;36921;49.006;9.292;2023-02-28T11:28:36;11.13;;;5.88;;
50932;SDS011;36921;49.006;9.292;2023-02-28T11:36:20;9.32;;;5.95;;
50932;SDS011;36921;49.006;9.292;2023-02-28T11:38:51;10.70;;;6.10;;
50932;SDS011;36921;49.006;9.292;2023-02-28T11:41:23;11.83;;;4.93;;
50932;SDS011;36921;49.006;9.292;2023-02-28T11:44:00;15.75;;;5.93;;
50932;SDS011;36921;49.006;9.292;2023-02-28T11:46:39;8.68;;;5.45;;
50932;SDS011;36921;49.006;9.292;2023-02-28T11:49:20;8.02;;;5.50;;
50932;SDS011;36921;49.006;9.292;2023-02-28T11:51:59;11.07;;;5.93;;
50932;SDS011;36921;49.006;9.292;2023-02-28T11:54:35;8.93;;;5.78;;
50932;SDS011;36921;49.006;9.292;2023-02-28T11:57:33;9.32;;;5.72;;
50932;SDS011;36921;49.006;9.292;2023-02-28T12:02:58;9.43;;;5.78;;
50932;SDS011;36921;49.006;9.292;2023-02-28T12:05:36;15.25;;;6.38;;
50932;SDS011;36921;49.006;9.292;2023-02-28T12:11:03;11.48;;;5.93;;
50932;SDS011;36921;49.006;9.292;2023-02-28T12:21:38;10.43;;;6.03;;
50932;SDS011;36921;49.006;9.292;2023-02-28T12:27:09;9.23;;;5.75;;
50932;SDS011;36921;49.006;9.292;2023-02-28T12:29:52;23.67;;;6.50;;
50932;SDS011;36921;49.006;9.292;2023-02-28T12:34:55;68.75;;;10.45;;
50932;SDS011;36921;49.006;9.292;2023-02-28T12:37:28;11.25;;;5.38;;
50932;SDS011;36921;49.006;9.292;2023-02-28T12:40:00;9.50;;;6.05;;
50932;SDS011;36921;49.006;9.292;2023-02-28T12:42:32;9.07;;;5.90;;
50932;SDS011;36921;49.006;9.292;2023-02-28T12:45:04;7.28;;;5.68;;
50932;SDS011;36921;49.006;9.292;2023-02-28T12:47:35;8.48;;;5.63;;
50932;SDS011;36921;49.006;9.292;2023-02-28T12:50:04;8.35;;;5.57;;
50932;SDS011;36921;49.006;9.292;2023-02-28T12:52:47;9.32;;;5.95;;
50932;SDS011;36921;49.006;9.292;2023-02-28T12:58:17;10.88;;;6.25;;
50932;SDS011;36921;49.006;9.292;2023-02-28T13:00:49;8.68;;;6.00;;
50932;SDS011;36921;49.006;9.292;2023-02-28T13:06:05;9.82;;;6.30;;
50932;SDS011;36921;49.006;9.292;2023-02-28T13:14:21;9.68;;;6.00;;
50932;SDS011;36921;49.006;9.292;2023-02-28T13:17:01;9.05;;;6.30;;
50932;SDS011;36921;49.006;9.292;2023-02-28T13:19:40;10.40;;;6.40;;
50932;SDS011;36921;49.006;9.292;2023-02-28T13:27:47;10.50;;;6.00;;
50932;SDS011;36921;49.006;9.292;2023-02-28T13:33:28;9.15;;;5.78;;
50932;SDS011;36921;49.006;9.292;2023-02-28T13:36:06;10.25;;;6.25;;
50932;SDS011;36921;49.006;9.292;2023-02-28T13:38:42;9.23;;;6.35;;
50932;SDS011;36921;49.006;9.292;2023-02-28T13:44:00;10.75;;;5.95;;
50932;SDS011;36921;49.006;9.292;2023-02-28T13:46:30;10.20;;;6.32;;
50932;SDS011;36921;49.006;9.292;2023-02-28T13:49:11;9.50;;;6.07;;
50932;SDS011;36921;49.006;9.292;2023-02-28T13:51:51;9.68;;;6.63;;
50932;SDS011;36921;49.006;9.292;2023-02-28T13:57:23;13.52;;;6.45;;
50932;SDS011;36921;49.006;9.292;2023-02-28T14:05:20;10.43;;;6.70;;
50932;SDS011;36921;49.006;9.292;2023-02-28T14:07:51;13.02;;;7.35;;
50932;SDS011;36921;49.006;9.292;2023-02-28T14:10:23;10.75;;;6.35;;
50932;SDS011;36921;49.006;9.292;2023-02-28T14:15:59;15.38;;;6.57;;
50932;SDS011;36921;49.006;9.292;2023-02-28T14:18:33;12.60;;;6.50;;
50932;SDS011;36921;49.006;9.292;2023-02-28T14:23:39;11.93;;;6.88;;
50932;SDS011;36921;49.006;9.292;2023-02-28T14:26:13;11.00;;;6.70;;
50932;SDS011;36921;49.006;9.292;2023-02-28T14:31:39;9.65;;;6.38;;
50932;SDS011;36921;49.006;9.292;2023-02-28T14:36:51;12.18;;;6.53;;
50932;SDS011;36921;49.006;9.292;2023-02-28T14:39:24;11.32;;;6.72;;
50932;SDS011;36921;49.006;9.292;2023-02-28T14:41:52;14.32;;;6.82;;
50932;SDS011;36921;49.006;9.292;2023-02-28T14:44:19;11.90;;;6.63;;
50932;SDS011;36921;49.006;9.292;2023-02-28T14:49:24;11.60;;;7.35;;
50932;SDS011;36921;49.006;9.292;2023-02-28T14:52:13;13.85;;;7.13;;
50932;SDS011;36921;49.006;9.292;2023-02-28T14:54:44;14.07;;;6.70;;
50932;SDS011;36921;49.006;9.292;2023-02-28T15:02:23;11.20;;;6.93;;
50932;SDS011;36921;49.006;9.292;2023-02-28T15:04:53;12.05;;;6.25;;
50932;SDS011;36921;49.006;9.292;2023-02-28T15:07:24;13.80;;;6.55;;
50932;SDS011;36921;49.006;9.292;2023-02-28T15:12:39;12.07;;;6.75;;
50932;SDS011;36921;49.006;9.292;2023-02-28T15:15:06;10.70;;;6.47;;
50932;SDS011;36921;49.006;9.292;2023-02-28T15:17:40;12.80;;;6.82;;
50932;SDS011;36921;49.006;9.292;2023-02-28T15:20:11;13.52;;;7.35;;
50932;SDS011;36921;49.006;9.292;2023-02-28T15:22:38;14.15;;;6.95;;
50932;SDS011;36921;49.006;9.292;2023-02-28T15:25:04;12.00;;;7.40;;
50932;SDS011;36921;49.006;9.292;2023-02-28T15:27:33;13.40;;;7.10;;
50932;SDS011;36921;49.006;9.292;2023-02-28T15:30:05;11.13;;;6.50;;
50932;SDS011;36921;49.006;9.292;2023-02-28T15:32:33;14.70;;;6.57;;
50932;SDS011;36921;49.006;9.292;2023-02-28T15:40:38;10.20;;;6.30;;
50932;SDS011;36921;49.006;9.292;2023-02-28T15:43:12;12.00;;;7.25;;
50932;SDS011;36921;49.006;9.292;2023-02-28T15:50:50;11.48;;;6.72;;
50932;SDS011;36921;49.006;9.292;2023-02-28T15:53:26;15.60;;;6.70;;
50932;SDS011;36921;49.006;9.292;2023-02-28T15:56:02;12.55;;;7.00;;
50932;SDS011;36921;49.006;9.292;2023-02-28T15:58:30;13.57;;;7.18;;
50932;SDS011;36921;49.006;9.292;2023-02-28T16:01:38;12.25;;;7.40;;
50932;SDS011;36921;49.006;9.292;2023-02-28T16:03:50;12.15;;;6.97;;
50932;SDS011;36921;49.006;9.292;2023-02-28T16:09:03;11.93;;;7.07;;
50932;SDS011;36921;49.006;9.292;2023-02-28T16:11:32;14.23;;;7.82;;
50932;SDS011;36921;49.006;9.292;2023-02-28T16:13:59;13.73;;;7.47;;
50932;SDS011;36921;49.006;9.292;2023-02-28T16:16:25;14.20;;;6.68;;
50932;SDS011;36921;49.006;9.292;2023-02-28T16:18:51;17.55;;;7.65;;
50932;SDS011;36921;49.006;9.292;2023-02-28T16:21:17;12.52;;;7.07;;
50932;SDS011;36921;49.006;9.292;2023-02-28T16:23:43;21.17;;;7.10;;
50932;SDS011;36921;49.006;9.292;2023-02-28T16:26:10;14.02;;;7.47;;
50932;SDS011;36921;49.006;9.292;2023-02-28T16:28:44;11.48;;;5.97;;
50932;SDS011;36921;49.006;9.292;2023-02-28T16:31:09;19.35;;;7.05;;
50932;SDS011;36921;49.006;9.292;2023-02-28T16:33:41;13.55;;;6.78;;
50932;SDS011;36921;49.006;9.292;2023-02-28T16:36:08;13.88;;;6.80;;
50932;SDS011;36921;49.006;9.292;2023-02-28T16:38:41;16.58;;;7.03;;
50932;SDS011;36921;49.006;9.292;2023-02-28T16:41:07;17.15;;;7.03;;
50932;SDS011;36921;49.006;9.292;2023-02-28T16:43:51;14.13;;;7.22;;
50932;SDS011;36921;49.006;9.292;2023-02-28T16:46:19;10.80;;;6.00;;
50932;SDS011;36921;49.006;9.292;2023-02-28T16:48:45;15.15;;;7.05;;
50932;SDS011;36921;49.006;9.292;2023-02-28T16:51:14;14.82;;;7.32;;
50932;SDS011;36921;49.006;9.292;2023-02-28T16:53:41;12.85;;;7.03;;
50932;SDS011;36921;49.006;9.292;2023-02-28T16:56:08;15.00;;;6.90;;
50932;SDS011;36921;49.006;9.292;2023-02-28T17:01:12;14.55;;;7.30;;
50932;SDS011;36921;49.006;9.292;2023-02-28T17:03:37;14.55;;;7.10;;
50932;SDS011;36921;49.006;9.292;2023-02-28T17:06:05;11.90;;;6.68;;
50932;SDS011;36921;49.006;9.292;2023-02-28T17:08:36;16.00;;;7.93;;
50932;SDS011;36921;49.006;9.292;2023-02-28T17:11:02;15.48;;;7.20;;
50932;SDS011;36921;49.006;9.292;2023-02-28T17:13:27;11.55;;;6.60;;
50932;SDS011;36921;49.006;9.292;2023-02-28T17:15:52;15.20;;;7.65;;
50932;SDS011;36921;49.006;9.292;2023-02-28T17:18:18;14.18;;;7.00;;
50932;SDS011;36921;49.006;9.292;2023-02-28T17:20:46;17.58;;;7.82;;
50932;SDS011;36921;49.006;9.292;2023-02-28T17:23:12;16.42;;;7.40;;
50932;SDS011;36921;49.006;9.292;2023-02-28T17:25:37;16.92;;;7.43;;